Terminal Aerodrome Forecast
Issued by NWS

Home | Current Version | Previous Version | Graphics & Text | Print | Product List | Glossary On
Versions: 1 2 3 4 5 6 7 8 9 10 11 12 13 14 15 16 17
000
FTUS43 KIWX 241120
TAFSBN
TAF
KSBN 241120Z 2412/2512 20012G21KT P6SM BKN150 WS020/23045KT
     FM241500 21016G28KT P6SM BKN200
     FM242300 21011KT P6SM BKN025
     FM250300 20010KT 6SM BR VCSH OVC015
     FM250900 20008KT 5SM SHRA BR OVC015=

USA.gov is the U.S. government's official web portal to all federal, state and local government web resources and services.